sensor_id;sensor_type;location;lat;lon;timestamp;P1;durP1;ratioP1;P2;durP2;ratioP2
11319;SDS011;5715;48.234;14.320;2023-03-31T00:02:03;3.17;;;2.43;;
11319;SDS011;5715;48.234;14.320;2023-03-31T00:04:59;2.43;;;2.33;;
11319;SDS011;5715;48.234;14.320;2023-03-31T00:07:47;2.13;;;2.00;;
11319;SDS011;5715;48.234;14.320;2023-03-31T00:10:42;2.27;;;2.17;;
11319;SDS011;5715;48.234;14.320;2023-03-31T00:13:32;3.50;;;2.37;;
11319;SDS011;5715;48.234;14.320;2023-03-31T00:16:21;2.60;;;2.40;;
11319;SDS011;5715;48.234;14.320;2023-03-31T00:19:09;2.50;;;2.30;;
11319;SDS011;5715;48.234;14.320;2023-03-31T00:22:03;3.00;;;2.70;;
11319;SDS011;5715;48.234;14.320;2023-03-31T00:24:51;3.33;;;2.80;;
11319;SDS011;5715;48.234;14.320;2023-03-31T00:27:43;2.80;;;2.60;;
11319;SDS011;5715;48.234;14.320;2023-03-31T00:30:31;2.37;;;2.27;;
11319;SDS011;5715;48.234;14.320;2023-03-31T00:33:19;3.03;;;2.83;;
11319;SDS011;5715;48.234;14.320;2023-03-31T00:36:06;3.10;;;2.90;;
11319;SDS011;5715;48.234;14.320;2023-03-31T00:38:56;3.10;;;2.90;;
11319;SDS011;5715;48.234;14.320;2023-03-31T00:41:48;2.77;;;2.57;;
11319;SDS011;5715;48.234;14.320;2023-03-31T00:45:24;3.30;;;3.07;;
11319;SDS011;5715;48.234;14.320;2023-03-31T00:48:02;3.10;;;2.90;;
11319;SDS011;5715;48.234;14.320;2023-03-31T00:50:59;3.77;;;3.47;;
11319;SDS011;5715;48.234;14.320;2023-03-31T00:53:53;3.50;;;2.97;;
11319;SDS011;5715;48.234;14.320;2023-03-31T00:56:50;3.00;;;2.80;;
11319;SDS011;5715;48.234;14.320;2023-03-31T00:59:51;3.90;;;3.53;;
11319;SDS011;5715;48.234;14.320;2023-03-31T01:02:50;2.53;;;2.43;;
11319;SDS011;5715;48.234;14.320;2023-03-31T01:05:55;2.80;;;2.60;;
11319;SDS011;5715;48.234;14.320;2023-03-31T01:08:50;3.00;;;2.80;;
11319;SDS011;5715;48.234;14.320;2023-03-31T01:11:39;2.50;;;2.30;;
11319;SDS011;5715;48.234;14.320;2023-03-31T01:14:26;3.87;;;3.37;;
11319;SDS011;5715;48.234;14.320;2023-03-31T01:17:17;3.03;;;2.53;;
11319;SDS011;5715;48.234;14.320;2023-03-31T01:20:11;2.43;;;2.30;;
11319;SDS011;5715;48.234;14.320;2023-03-31T01:47:58;2.83;;;2.63;;
11319;SDS011;5715;48.234;14.320;2023-03-31T01:57:31;3.13;;;2.67;;
11319;SDS011;5715;48.234;14.320;2023-03-31T02:00:24;2.20;;;2.00;;
11319;SDS011;5715;48.234;14.320;2023-03-31T02:03:23;3.30;;;2.70;;
11319;SDS011;5715;48.234;14.320;2023-03-31T02:06:22;3.03;;;2.60;;
11319;SDS011;5715;48.234;14.320;2023-03-31T02:09:22;2.70;;;2.50;;
11319;SDS011;5715;48.234;14.320;2023-03-31T02:12:20;2.33;;;2.13;;
11319;SDS011;5715;48.234;14.320;2023-03-31T02:15:14;3.60;;;2.97;;
11319;SDS011;5715;48.234;14.320;2023-03-31T02:18:11;6.03;;;3.03;;
11319;SDS011;5715;48.234;14.320;2023-03-31T02:21:06;3.13;;;2.93;;
11319;SDS011;5715;48.234;14.320;2023-03-31T02:23:57;3.10;;;2.43;;
11319;SDS011;5715;48.234;14.320;2023-03-31T02:30:00;3.93;;;3.03;;
11319;SDS011;5715;48.234;14.320;2023-03-31T02:32:49;2.93;;;2.27;;
11319;SDS011;5715;48.234;14.320;2023-03-31T02:35:37;8.10;;;2.90;;
11319;SDS011;5715;48.234;14.320;2023-03-31T02:38:25;2.43;;;2.23;;
11319;SDS011;5715;48.234;14.320;2023-03-31T02:41:13;3.07;;;2.80;;
11319;SDS011;5715;48.234;14.320;2023-03-31T02:44:01;2.70;;;2.50;;
11319;SDS011;5715;48.234;14.320;2023-03-31T02:46:49;4.57;;;2.93;;
11319;SDS011;5715;48.234;14.320;2023-03-31T02:49:38;4.30;;;2.67;;
11319;SDS011;5715;48.234;14.320;2023-03-31T02:52:44;2.40;;;2.20;;
11319;SDS011;5715;48.234;14.320;2023-03-31T02:58:54;3.13;;;2.90;;
11319;SDS011;5715;48.234;14.320;2023-03-31T03:15:20;2.47;;;2.23;;
11319;SDS011;5715;48.234;14.320;2023-03-31T03:18:22;2.83;;;2.53;;
11319;SDS011;5715;48.234;14.320;2023-03-31T03:21:10;2.80;;;2.60;;
11319;SDS011;5715;48.234;14.320;2023-03-31T03:23:58;3.77;;;3.47;;
11319;SDS011;5715;48.234;14.320;2023-03-31T03:26:47;2.43;;;2.23;;
11319;SDS011;5715;48.234;14.320;2023-03-31T03:29:35;3.93;;;2.77;;
11319;SDS011;5715;48.234;14.320;2023-03-31T03:32:23;2.10;;;2.00;;
11319;SDS011;5715;48.234;14.320;2023-03-31T03:35:11;2.40;;;2.23;;
11319;SDS011;5715;48.234;14.320;2023-03-31T03:37:59;4.00;;;2.50;;
11319;SDS011;5715;48.234;14.320;2023-03-31T03:40:46;2.77;;;2.57;;
11319;SDS011;5715;48.234;14.320;2023-03-31T03:43:39;6.80;;;2.63;;
11319;SDS011;5715;48.234;14.320;2023-03-31T03:46:27;3.13;;;2.83;;
11319;SDS011;5715;48.234;14.320;2023-03-31T03:49:14;3.47;;;3.17;;
11319;SDS011;5715;48.234;14.320;2023-03-31T03:52:02;3.73;;;3.27;;
11319;SDS011;5715;48.234;14.320;2023-03-31T03:54:50;2.63;;;2.43;;
11319;SDS011;5715;48.234;14.320;2023-03-31T03:57:38;4.90;;;3.03;;
11319;SDS011;5715;48.234;14.320;2023-03-31T04:00:25;4.50;;;3.30;;
11319;SDS011;5715;48.234;14.320;2023-03-31T04:03:13;2.80;;;2.60;;
11319;SDS011;5715;48.234;14.320;2023-03-31T04:06:01;3.33;;;3.03;;
11319;SDS011;5715;48.234;14.320;2023-03-31T04:08:48;3.17;;;2.30;;
11319;SDS011;5715;48.234;14.320;2023-03-31T04:11:36;3.00;;;2.70;;
11319;SDS011;5715;48.234;14.320;2023-03-31T04:14:23;3.50;;;2.70;;
11319;SDS011;5715;48.234;14.320;2023-03-31T04:17:11;4.33;;;3.93;;
11319;SDS011;5715;48.234;14.320;2023-03-31T04:20:03;2.60;;;2.27;;
11319;SDS011;5715;48.234;14.320;2023-03-31T04:22:55;3.43;;;3.13;;
11319;SDS011;5715;48.234;14.320;2023-03-31T04:25:43;3.37;;;3.07;;
11319;SDS011;5715;48.234;14.320;2023-03-31T04:28:31;3.07;;;2.70;;
11319;SDS011;5715;48.234;14.320;2023-03-31T04:31:21;3.37;;;3.07;;
11319;SDS011;5715;48.234;14.320;2023-03-31T04:34:13;2.83;;;2.60;;
11319;SDS011;5715;48.234;14.320;2023-03-31T04:37:01;3.40;;;3.07;;
11319;SDS011;5715;48.234;14.320;2023-03-31T04:39:50;2.80;;;2.60;;
11319;SDS011;5715;48.234;14.320;2023-03-31T04:42:40;2.40;;;2.20;;
11319;SDS011;5715;48.234;14.320;2023-03-31T04:45:30;2.73;;;2.53;;
11319;SDS011;5715;48.234;14.320;2023-03-31T04:48:18;3.63;;;3.33;;
11319;SDS011;5715;48.234;14.320;2023-03-31T04:51:06;3.37;;;3.00;;
11319;SDS011;5715;48.234;14.320;2023-03-31T04:53:54;4.13;;;3.40;;
11319;SDS011;5715;48.234;14.320;2023-03-31T04:56:42;3.97;;;3.53;;
11319;SDS011;5715;48.234;14.320;2023-03-31T04:59:30;5.87;;;4.10;;
11319;SDS011;5715;48.234;14.320;2023-03-31T05:02:17;4.33;;;3.67;;
11319;SDS011;5715;48.234;14.320;2023-03-31T05:05:11;3.87;;;3.43;;
11319;SDS011;5715;48.234;14.320;2023-03-31T05:07:59;3.13;;;2.90;;
11319;SDS011;5715;48.234;14.320;2023-03-31T05:10:46;3.27;;;2.50;;
11319;SDS011;5715;48.234;14.320;2023-03-31T05:13:34;3.63;;;3.33;;
11319;SDS011;5715;48.234;14.320;2023-03-31T05:16:21;2.97;;;2.67;;
11319;SDS011;5715;48.234;14.320;2023-03-31T05:19:09;3.20;;;2.93;;
11319;SDS011;5715;48.234;14.320;2023-03-31T05:21:56;4.60;;;4.20;;
11319;SDS011;5715;48.234;14.320;2023-03-31T05:24:44;6.50;;;3.47;;
11319;SDS011;5715;48.234;14.320;2023-03-31T05:27:33;4.10;;;3.77;;
11319;SDS011;5715;48.234;14.320;2023-03-31T05:30:22;3.50;;;3.03;;
11319;SDS011;5715;48.234;14.320;2023-03-31T05:33:11;4.90;;;3.67;;
11319;SDS011;5715;48.234;14.320;2023-03-31T05:36:00;5.70;;;3.57;;
11319;SDS011;5715;48.234;14.320;2023-03-31T05:38:48;9.97;;;3.80;;
11319;SDS011;5715;48.234;14.320;2023-03-31T05:41:35;3.63;;;3.43;;
11319;SDS011;5715;48.234;14.320;2023-03-31T05:44:23;5.47;;;4.47;;
11319;SDS011;5715;48.234;14.320;2023-03-31T05:47:10;4.20;;;3.70;;
11319;SDS011;5715;48.234;14.320;2023-03-31T05:49:59;4.17;;;3.73;;
11319;SDS011;5715;48.234;14.320;2023-03-31T05:52:46;3.27;;;3.03;;
11319;SDS011;5715;48.234;14.320;2023-03-31T05:55:37;3.20;;;3.00;;
11319;SDS011;5715;48.234;14.320;2023-03-31T05:58:26;4.23;;;3.53;;
11319;SDS011;5715;48.234;14.320;2023-03-31T06:01:15;5.30;;;4.90;;
11319;SDS011;5715;48.234;14.320;2023-03-31T06:04:08;5.23;;;4.70;;
11319;SDS011;5715;48.234;14.320;2023-03-31T06:06:56;3.83;;;3.53;;
11319;SDS011;5715;48.234;14.320;2023-03-31T06:09:44;4.20;;;3.80;;
11319;SDS011;5715;48.234;14.320;2023-03-31T06:12:32;6.20;;;4.17;;
11319;SDS011;5715;48.234;14.320;2023-03-31T06:15:19;6.07;;;4.00;;
11319;SDS011;5715;48.234;14.320;2023-03-31T06:18:07;6.07;;;4.60;;
11319;SDS011;5715;48.234;14.320;2023-03-31T06:20:56;3.57;;;3.27;;
11319;SDS011;5715;48.234;14.320;2023-03-31T06:23:44;4.40;;;4.00;;
11319;SDS011;5715;48.234;14.320;2023-03-31T06:26:32;4.83;;;4.30;;
11319;SDS011;5715;48.234;14.320;2023-03-31T06:29:22;4.73;;;4.37;;
11319;SDS011;5715;48.234;14.320;2023-03-31T06:32:10;4.17;;;3.83;;
11319;SDS011;5715;48.234;14.320;2023-03-31T06:34:57;8.43;;;4.90;;
11319;SDS011;5715;48.234;14.320;2023-03-31T06:37:45;5.67;;;4.33;;
11319;SDS011;5715;48.234;14.320;2023-03-31T06:40:32;4.83;;;4.40;;
11319;SDS011;5715;48.234;14.320;2023-03-31T06:43:20;5.27;;;4.53;;
11319;SDS011;5715;48.234;14.320;2023-03-31T06:46:07;6.60;;;5.47;;
11319;SDS011;5715;48.234;14.320;2023-03-31T06:48:57;7.87;;;7.13;;
11319;SDS011;5715;48.234;14.320;2023-03-31T06:51:44;8.43;;;6.37;;
11319;SDS011;5715;48.234;14.320;2023-03-31T06:54:32;7.47;;;6.87;;
11319;SDS011;5715;48.234;14.320;2023-03-31T06:57:19;8.20;;;7.57;;
11319;SDS011;5715;48.234;14.320;2023-03-31T07:00:07;5.77;;;5.33;;
11319;SDS011;5715;48.234;14.320;2023-03-31T07:02:56;9.33;;;6.97;;
11319;SDS011;5715;48.234;14.320;2023-03-31T07:05:51;12.23;;;6.23;;
11319;SDS011;5715;48.234;14.320;2023-03-31T07:08:40;6.27;;;5.70;;
11319;SDS011;5715;48.234;14.320;2023-03-31T07:11:28;6.53;;;5.90;;
11319;SDS011;5715;48.234;14.320;2023-03-31T07:14:16;6.47;;;5.93;;
11319;SDS011;5715;48.234;14.320;2023-03-31T07:17:03;6.57;;;6.00;;
11319;SDS011;5715;48.234;14.320;2023-03-31T07:19:52;7.43;;;5.43;;
11319;SDS011;5715;48.234;14.320;2023-03-31T07:22:40;5.00;;;4.50;;
11319;SDS011;5715;48.234;14.320;2023-03-31T07:25:29;6.40;;;4.93;;
11319;SDS011;5715;48.234;14.320;2023-03-31T07:28:17;4.93;;;4.23;;
11319;SDS011;5715;48.234;14.320;2023-03-31T07:31:11;6.30;;;4.70;;
11319;SDS011;5715;48.234;14.320;2023-03-31T07:34:02;5.17;;;4.70;;
11319;SDS011;5715;48.234;14.320;2023-03-31T07:36:51;4.27;;;3.87;;
11319;SDS011;5715;48.234;14.320;2023-03-31T07:39:42;4.13;;;3.70;;
11319;SDS011;5715;48.234;14.320;2023-03-31T07:42:29;5.73;;;4.50;;
11319;SDS011;5715;48.234;14.320;2023-03-31T07:45:18;7.03;;;6.27;;
11319;SDS011;5715;48.234;14.320;2023-03-31T07:48:08;10.43;;;4.87;;
11319;SDS011;5715;48.234;14.320;2023-03-31T07:50:56;4.80;;;4.40;;
11319;SDS011;5715;48.234;14.320;2023-03-31T07:53:44;4.20;;;3.80;;
11319;SDS011;5715;48.234;14.320;2023-03-31T07:56:32;11.60;;;4.43;;
11319;SDS011;5715;48.234;14.320;2023-03-31T07:59:20;11.30;;;5.57;;
11319;SDS011;5715;48.234;14.320;2023-03-31T08:02:09;4.17;;;3.80;;
11319;SDS011;5715;48.234;14.320;2023-03-31T08:05:04;4.43;;;3.67;;
11319;SDS011;5715;48.234;14.320;2023-03-31T08:07:53;3.97;;;3.57;;
11319;SDS011;5715;48.234;14.320;2023-03-31T08:10:40;7.83;;;3.57;;
11319;SDS011;5715;48.234;14.320;2023-03-31T08:13:28;5.20;;;3.60;;
11319;SDS011;5715;48.234;14.320;2023-03-31T08:16:16;4.07;;;3.37;;
11319;SDS011;5715;48.234;14.320;2023-03-31T08:19:04;3.83;;;2.93;;
11319;SDS011;5715;48.234;14.320;2023-03-31T08:21:52;8.73;;;4.33;;
11319;SDS011;5715;48.234;14.320;2023-03-31T08:24:40;5.00;;;3.70;;
11319;SDS011;5715;48.234;14.320;2023-03-31T08:27:27;6.27;;;3.63;;
11319;SDS011;5715;48.234;14.320;2023-03-31T08:30:18;3.67;;;3.30;;
11319;SDS011;5715;48.234;14.320;2023-03-31T08:33:06;4.87;;;3.27;;
11319;SDS011;5715;48.234;14.320;2023-03-31T08:35:54;4.00;;;3.60;;
11319;SDS011;5715;48.234;14.320;2023-03-31T08:38:42;6.57;;;4.47;;
11319;SDS011;5715;48.234;14.320;2023-03-31T08:41:43;4.67;;;4.03;;
11319;SDS011;5715;48.234;14.320;2023-03-31T08:44:51;4.27;;;3.77;;
11319;SDS011;5715;48.234;14.320;2023-03-31T08:48:18;11.53;;;4.50;;
11319;SDS011;5715;48.234;14.320;2023-03-31T08:51:14;6.93;;;4.47;;
11319;SDS011;5715;48.234;14.320;2023-03-31T08:57:35;5.27;;;3.10;;
11319;SDS011;5715;48.234;14.320;2023-03-31T09:00:39;6.87;;;4.43;;
11319;SDS011;5715;48.234;14.320;2023-03-31T09:07:24;5.03;;;3.40;;
11319;SDS011;5715;48.234;14.320;2023-03-31T09:20:15;9.53;;;4.03;;
11319;SDS011;5715;48.234;14.320;2023-03-31T09:30:02;4.00;;;3.57;;
11319;SDS011;5715;48.234;14.320;2023-03-31T09:33:28;9.40;;;3.47;;
11319;SDS011;5715;48.234;14.320;2023-03-31T09:36:20;3.20;;;2.83;;
11319;SDS011;5715;48.234;14.320;2023-03-31T09:39:10;12.93;;;3.80;;
11319;SDS011;5715;48.234;14.320;2023-03-31T09:42:00;8.70;;;3.23;;
11319;SDS011;5715;48.234;14.320;2023-03-31T09:44:48;4.10;;;3.47;;
11319;SDS011;5715;48.234;14.320;2023-03-31T09:47:40;4.97;;;3.27;;
11319;SDS011;5715;48.234;14.320;2023-03-31T09:50:32;4.17;;;3.53;;
11319;SDS011;5715;48.234;14.320;2023-03-31T09:53:42;4.17;;;3.23;;
11319;SDS011;5715;48.234;14.320;2023-03-31T09:56:50;8.07;;;3.43;;
11319;SDS011;5715;48.234;14.320;2023-03-31T09:59:39;3.97;;;3.50;;
11319;SDS011;5715;48.234;14.320;2023-03-31T10:02:33;7.60;;;4.43;;
11319;SDS011;5715;48.234;14.320;2023-03-31T10:08:26;3.67;;;3.37;;
11319;SDS011;5715;48.234;14.320;2023-03-31T10:11:17;5.67;;;4.13;;
11319;SDS011;5715;48.234;14.320;2023-03-31T10:14:10;3.60;;;3.30;;
11319;SDS011;5715;48.234;14.320;2023-03-31T10:17:04;3.37;;;3.17;;
11319;SDS011;5715;48.234;14.320;2023-03-31T10:19:54;6.90;;;4.37;;
11319;SDS011;5715;48.234;14.320;2023-03-31T10:22:53;4.67;;;4.27;;
11319;SDS011;5715;48.234;14.320;2023-03-31T10:25:41;7.97;;;4.10;;
11319;SDS011;5715;48.234;14.320;2023-03-31T10:28:31;6.67;;;3.27;;
11319;SDS011;5715;48.234;14.320;2023-03-31T10:31:26;6.67;;;3.93;;
11319;SDS011;5715;48.234;14.320;2023-03-31T10:34:22;4.10;;;3.50;;
11319;SDS011;5715;48.234;14.320;2023-03-31T10:37:13;3.72;;;3.40;;
11319;SDS011;5715;48.234;14.320;2023-03-31T10:43:02;3.40;;;2.95;;
11319;SDS011;5715;48.234;14.320;2023-03-31T10:45:58;3.47;;;3.17;;
11319;SDS011;5715;48.234;14.320;2023-03-31T10:48:46;4.10;;;3.25;;
11319;SDS011;5715;48.234;14.320;2023-03-31T10:51:34;5.97;;;4.00;;
11319;SDS011;5715;48.234;14.320;2023-03-31T10:54:21;4.30;;;3.42;;
11319;SDS011;5715;48.234;14.320;2023-03-31T10:57:09;3.60;;;3.30;;
11319;SDS011;5715;48.234;14.320;2023-03-31T11:03:32;3.20;;;2.55;;
11319;SDS011;5715;48.234;14.320;2023-03-31T11:06:48;3.50;;;2.65;;
11319;SDS011;5715;48.234;14.320;2023-03-31T11:13:43;6.65;;;2.78;;
11319;SDS011;5715;48.234;14.320;2023-03-31T11:16:54;4.70;;;2.80;;
11319;SDS011;5715;48.234;14.320;2023-03-31T11:19:56;2.97;;;2.67;;
11319;SDS011;5715;48.234;14.320;2023-03-31T11:29:49;7.30;;;2.90;;
11319;SDS011;5715;48.234;14.320;2023-03-31T11:39:44;4.43;;;3.42;;
11319;SDS011;5715;48.234;14.320;2023-03-31T11:42:58;4.10;;;3.42;;
11319;SDS011;5715;48.234;14.320;2023-03-31T11:55:20;4.63;;;4.22;;
11319;SDS011;5715;48.234;14.320;2023-03-31T11:58:17;4.03;;;3.63;;
11319;SDS011;5715;48.234;14.320;2023-03-31T12:10:20;4.25;;;3.95;;
11319;SDS011;5715;48.234;14.320;2023-03-31T12:17:10;6.43;;;4.57;;
11319;SDS011;5715;48.234;14.320;2023-03-31T12:20:05;4.40;;;4.18;;
11319;SDS011;5715;48.234;14.320;2023-03-31T12:23:12;6.03;;;3.90;;
11319;SDS011;5715;48.234;14.320;2023-03-31T12:30:00;4.35;;;4.05;;
11319;SDS011;5715;48.234;14.320;2023-03-31T12:32:54;7.40;;;4.97;;
11319;SDS011;5715;48.234;14.320;2023-03-31T12:42:24;4.30;;;4.00;;
11319;SDS011;5715;48.234;14.320;2023-03-31T12:49:46;4.45;;;4.05;;
11319;SDS011;5715;48.234;14.320;2023-03-31T12:53:17;3.83;;;3.53;;
11319;SDS011;5715;48.234;14.320;2023-03-31T12:57:01;4.13;;;3.63;;
11319;SDS011;5715;48.234;14.320;2023-03-31T13:06:57;5.18;;;3.17;;
11319;SDS011;5715;48.234;14.320;2023-03-31T13:09:47;5.35;;;4.80;;
11319;SDS011;5715;48.234;14.320;2023-03-31T13:12:39;5.32;;;3.17;;
11319;SDS011;5715;48.234;14.320;2023-03-31T13:15:28;5.28;;;3.47;;
11319;SDS011;5715;48.234;14.320;2023-03-31T13:18:18;3.92;;;3.03;;
11319;SDS011;5715;48.234;14.320;2023-03-31T13:21:07;2.70;;;2.50;;
11319;SDS011;5715;48.234;14.320;2023-03-31T13:23:58;3.10;;;2.80;;
11319;SDS011;5715;48.234;14.320;2023-03-31T13:26:48;3.10;;;2.80;;
11319;SDS011;5715;48.234;14.320;2023-03-31T13:29:40;3.43;;;2.60;;
11319;SDS011;5715;48.234;14.320;2023-03-31T13:32:32;2.50;;;2.30;;
11319;SDS011;5715;48.234;14.320;2023-03-31T13:35:20;3.07;;;2.57;;
11319;SDS011;5715;48.234;14.320;2023-03-31T14:02:10;2.30;;;2.10;;
11319;SDS011;5715;48.234;14.320;2023-03-31T14:05:46;2.20;;;2.10;;
11319;SDS011;5715;48.234;14.320;2023-03-31T14:08:59;2.20;;;2.10;;
11319;SDS011;5715;48.234;14.320;2023-03-31T14:15:21;2.40;;;2.30;;
11319;SDS011;5715;48.234;14.320;2023-03-31T14:18:09;3.10;;;2.90;;
11319;SDS011;5715;48.234;14.320;2023-03-31T14:24:31;3.37;;;3.17;;
11319;SDS011;5715;48.234;14.320;2023-03-31T14:34:29;6.37;;;4.80;;
11319;SDS011;5715;48.234;14.320;2023-03-31T14:37:39;6.30;;;5.80;;
11319;SDS011;5715;48.234;14.320;2023-03-31T14:40:27;5.00;;;4.60;;
11319;SDS011;5715;48.234;14.320;2023-03-31T14:43:18;11.83;;;11.17;;
11319;SDS011;5715;48.234;14.320;2023-03-31T14:46:11;3.80;;;3.50;;
11319;SDS011;5715;48.234;14.320;2023-03-31T14:49:21;2.63;;;2.43;;
11319;SDS011;5715;48.234;14.320;2023-03-31T14:52:23;2.53;;;2.33;;
11319;SDS011;5715;48.234;14.320;2023-03-31T14:55:14;3.13;;;2.33;;
11319;SDS011;5715;48.234;14.320;2023-03-31T14:58:03;2.30;;;2.10;;
11319;SDS011;5715;48.234;14.320;2023-03-31T15:00:51;2.60;;;2.03;;
11319;SDS011;5715;48.234;14.320;2023-03-31T15:03:40;2.97;;;2.23;;
11319;SDS011;5715;48.234;14.320;2023-03-31T15:06:29;1.87;;;1.77;;
11319;SDS011;5715;48.234;14.320;2023-03-31T15:09:20;3.23;;;2.17;;
11319;SDS011;5715;48.234;14.320;2023-03-31T15:12:21;2.30;;;2.10;;
11319;SDS011;5715;48.234;14.320;2023-03-31T15:15:09;2.03;;;1.90;;
11319;SDS011;5715;48.234;14.320;2023-03-31T15:17:59;4.07;;;2.50;;
11319;SDS011;5715;48.234;14.320;2023-03-31T15:20:47;2.33;;;2.13;;
11319;SDS011;5715;48.234;14.320;2023-03-31T15:23:35;2.57;;;1.97;;
11319;SDS011;5715;48.234;14.320;2023-03-31T15:26:34;2.63;;;2.33;;
11319;SDS011;5715;48.234;14.320;2023-03-31T15:29:39;6.03;;;3.30;;
11319;SDS011;5715;48.234;14.320;2023-03-31T15:32:37;3.23;;;2.20;;
11319;SDS011;5715;48.234;14.320;2023-03-31T15:35:30;2.17;;;1.97;;
11319;SDS011;5715;48.234;14.320;2023-03-31T15:38:21;2.63;;;2.43;;
11319;SDS011;5715;48.234;14.320;2023-03-31T15:41:14;3.53;;;2.33;;
11319;SDS011;5715;48.234;14.320;2023-03-31T15:44:07;2.10;;;1.97;;
11319;SDS011;5715;48.234;14.320;2023-03-31T15:47:28;9.83;;;2.53;;
11319;SDS011;5715;48.234;14.320;2023-03-31T15:50:31;2.60;;;2.13;;
11319;SDS011;5715;48.234;14.320;2023-03-31T15:53:31;2.43;;;2.10;;
11319;SDS011;5715;48.234;14.320;2023-03-31T15:56:40;2.90;;;2.43;;
11319;SDS011;5715;48.234;14.320;2023-03-31T15:59:31;3.00;;;2.70;;
11319;SDS011;5715;48.234;14.320;2023-03-31T16:02:42;2.67;;;2.23;;
11319;SDS011;5715;48.234;14.320;2023-03-31T16:05:36;2.20;;;2.10;;
11319;SDS011;5715;48.234;14.320;2023-03-31T16:08:42;2.50;;;2.00;;
11319;SDS011;5715;48.234;14.320;2023-03-31T16:11:44;1.60;;;1.50;;
11319;SDS011;5715;48.234;14.320;2023-03-31T16:14:49;1.90;;;1.80;;
11319;SDS011;5715;48.234;14.320;2023-03-31T16:20:43;2.10;;;1.90;;
11319;SDS011;5715;48.234;14.320;2023-03-31T16:23:40;1.60;;;1.50;;
11319;SDS011;5715;48.234;14.320;2023-03-31T16:26:30;1.47;;;1.40;;
11319;SDS011;5715;48.234;14.320;2023-03-31T16:29:19;4.33;;;1.70;;
11319;SDS011;5715;48.234;14.320;2023-03-31T16:32:09;1.73;;;1.63;;
11319;SDS011;5715;48.234;14.320;2023-03-31T16:35:02;1.83;;;1.73;;
11319;SDS011;5715;48.234;14.320;2023-03-31T16:37:54;2.27;;;2.17;;
11319;SDS011;5715;48.234;14.320;2023-03-31T16:40:43;2.30;;;2.10;;
11319;SDS011;5715;48.234;14.320;2023-03-31T16:43:37;2.23;;;1.80;;
11319;SDS011;5715;48.234;14.320;2023-03-31T16:46:25;9.47;;;1.63;;
11319;SDS011;5715;48.234;14.320;2023-03-31T16:49:13;4.87;;;1.90;;
11319;SDS011;5715;48.234;14.320;2023-03-31T16:52:01;2.90;;;1.63;;
11319;SDS011;5715;48.234;14.320;2023-03-31T16:54:50;1.57;;;1.47;;
11319;SDS011;5715;48.234;14.320;2023-03-31T16:57:38;1.60;;;1.50;;
11319;SDS011;5715;48.234;14.320;2023-03-31T17:00:26;2.10;;;2.00;;
11319;SDS011;5715;48.234;14.320;2023-03-31T17:03:14;1.10;;;1.10;;
11319;SDS011;5715;48.234;14.320;2023-03-31T17:06:04;2.93;;;1.70;;
11319;SDS011;5715;48.234;14.320;2023-03-31T17:08:58;1.20;;;1.20;;
11319;SDS011;5715;48.234;14.320;2023-03-31T17:11:46;2.13;;;1.93;;
11319;SDS011;5715;48.234;14.320;2023-03-31T17:14:34;2.63;;;1.87;;
11319;SDS011;5715;48.234;14.320;2023-03-31T17:17:22;2.63;;;2.43;;
11319;SDS011;5715;48.234;14.320;2023-03-31T17:20:10;2.53;;;2.40;;
11319;SDS011;5715;48.234;14.320;2023-03-31T17:22:58;2.30;;;2.07;;
11319;SDS011;5715;48.234;14.320;2023-03-31T17:25:46;2.23;;;2.13;;
11319;SDS011;5715;48.234;14.320;2023-03-31T17:28:39;3.40;;;3.10;;
11319;SDS011;5715;48.234;14.320;2023-03-31T17:31:27;3.87;;;2.47;;
11319;SDS011;5715;48.234;14.320;2023-03-31T17:34:16;2.80;;;2.30;;
11319;SDS011;5715;48.234;14.320;2023-03-31T17:37:04;1.73;;;1.63;;
11319;SDS011;5715;48.234;14.320;2023-03-31T17:39:51;6.37;;;1.70;;
11319;SDS011;5715;48.234;14.320;2023-03-31T17:42:39;2.40;;;1.67;;
11319;SDS011;5715;48.234;14.320;2023-03-31T17:45:30;3.20;;;1.80;;
11319;SDS011;5715;48.234;14.320;2023-03-31T17:48:18;1.00;;;1.00;;
11319;SDS011;5715;48.234;14.320;2023-03-31T17:51:13;1.37;;;1.30;;
11319;SDS011;5715;48.234;14.320;2023-03-31T17:54:03;1.63;;;1.20;;
11319;SDS011;5715;48.234;14.320;2023-03-31T17:56:51;1.40;;;1.07;;
11319;SDS011;5715;48.234;14.320;2023-03-31T17:59:40;3.73;;;1.13;;
11319;SDS011;5715;48.234;14.320;2023-03-31T18:02:27;1.27;;;0.80;;
11319;SDS011;5715;48.234;14.320;2023-03-31T18:05:15;0.87;;;0.70;;
11319;SDS011;5715;48.234;14.320;2023-03-31T18:08:04;0.90;;;0.90;;
11319;SDS011;5715;48.234;14.320;2023-03-31T18:10:51;1.03;;;1.00;;
11319;SDS011;5715;48.234;14.320;2023-03-31T18:13:39;3.50;;;0.90;;
11319;SDS011;5715;48.234;14.320;2023-03-31T18:16:27;0.80;;;0.80;;
11319;SDS011;5715;48.234;14.320;2023-03-31T18:19:17;1.07;;;0.97;;
11319;SDS011;5715;48.234;14.320;2023-03-31T18:22:05;0.97;;;0.90;;
11319;SDS011;5715;48.234;14.320;2023-03-31T18:24:52;0.90;;;0.90;;
11319;SDS011;5715;48.234;14.320;2023-03-31T18:27:40;3.50;;;0.77;;
11319;SDS011;5715;48.234;14.320;2023-03-31T18:30:28;2.53;;;1.00;;
11319;SDS011;5715;48.234;14.320;2023-03-31T18:33:16;1.13;;;1.00;;
11319;SDS011;5715;48.234;14.320;2023-03-31T18:36:04;2.30;;;0.80;;
11319;SDS011;5715;48.234;14.320;2023-03-31T18:38:54;1.93;;;1.17;;
11319;SDS011;5715;48.234;14.320;2023-03-31T18:41:43;1.27;;;1.10;;
11319;SDS011;5715;48.234;14.320;2023-03-31T18:44:34;7.27;;;1.50;;
11319;SDS011;5715;48.234;14.320;2023-03-31T18:47:22;1.63;;;1.00;;
11319;SDS011;5715;48.234;14.320;2023-03-31T18:50:10;1.40;;;1.20;;
11319;SDS011;5715;48.234;14.320;2023-03-31T18:52:59;1.73;;;1.00;;
11319;SDS011;5715;48.234;14.320;2023-03-31T18:55:47;2.20;;;1.33;;
11319;SDS011;5715;48.234;14.320;2023-03-31T18:58:36;9.23;;;1.90;;
11319;SDS011;5715;48.234;14.320;2023-03-31T19:01:24;1.50;;;1.40;;
11319;SDS011;5715;48.234;14.320;2023-03-31T19:04:13;0.77;;;0.77;;
11319;SDS011;5715;48.234;14.320;2023-03-31T19:07:00;2.03;;;1.40;;
11319;SDS011;5715;48.234;14.320;2023-03-31T19:09:47;1.13;;;1.10;;
11319;SDS011;5715;48.234;14.320;2023-03-31T19:12:35;1.20;;;1.10;;
11319;SDS011;5715;48.234;14.320;2023-03-31T19:15:23;1.37;;;1.00;;
11319;SDS011;5715;48.234;14.320;2023-03-31T19:18:13;2.47;;;0.97;;
11319;SDS011;5715;48.234;14.320;2023-03-31T19:21:01;1.03;;;1.00;;
11319;SDS011;5715;48.234;14.320;2023-03-31T19:23:49;1.00;;;1.00;;
11319;SDS011;5715;48.234;14.320;2023-03-31T19:26:37;1.30;;;1.20;;
11319;SDS011;5715;48.234;14.320;2023-03-31T19:29:25;1.30;;;1.00;;
11319;SDS011;5715;48.234;14.320;2023-03-31T19:32:13;1.20;;;1.17;;
11319;SDS011;5715;48.234;14.320;2023-03-31T19:35:02;0.90;;;0.90;;
11319;SDS011;5715;48.234;14.320;2023-03-31T19:37:50;0.90;;;0.90;;
11319;SDS011;5715;48.234;14.320;2023-03-31T19:40:38;5.70;;;1.33;;
11319;SDS011;5715;48.234;14.320;2023-03-31T19:43:27;1.50;;;1.40;;
11319;SDS011;5715;48.234;14.320;2023-03-31T19:46:16;4.00;;;2.53;;
11319;SDS011;5715;48.234;14.320;2023-03-31T19:49:04;3.17;;;1.57;;
11319;SDS011;5715;48.234;14.320;2023-03-31T19:51:52;1.20;;;1.20;;
11319;SDS011;5715;48.234;14.320;2023-03-31T19:54:39;1.80;;;1.70;;
11319;SDS011;5715;48.234;14.320;2023-03-31T19:57:27;3.37;;;1.87;;
11319;SDS011;5715;48.234;14.320;2023-03-31T20:00:15;2.40;;;1.53;;
11319;SDS011;5715;48.234;14.320;2023-03-31T20:03:05;2.20;;;2.00;;
11319;SDS011;5715;48.234;14.320;2023-03-31T20:06:06;2.30;;;2.20;;
11319;SDS011;5715;48.234;14.320;2023-03-31T20:08:58;3.73;;;2.33;;
11319;SDS011;5715;48.234;14.320;2023-03-31T20:11:48;2.73;;;2.53;;
11319;SDS011;5715;48.234;14.320;2023-03-31T20:14:35;2.20;;;2.10;;
11319;SDS011;5715;48.234;14.320;2023-03-31T20:17:24;2.50;;;2.30;;
11319;SDS011;5715;48.234;14.320;2023-03-31T20:20:11;2.10;;;2.00;;
11319;SDS011;5715;48.234;14.320;2023-03-31T20:22:59;2.77;;;2.57;;
11319;SDS011;5715;48.234;14.320;2023-03-31T20:25:46;2.40;;;2.30;;